createdAt,value
2022-11-05T00:00:05.952Z,0.00
2022-11-05T00:01:05.939Z,0.00
2022-11-05T00:02:06.001Z,0.00
2022-11-05T00:03:05.917Z,0.00
2022-11-05T00:04:05.962Z,0.00
2022-11-05T00:05:05.896Z,0.00
2022-11-05T00:06:05.887Z,0.00
2022-11-05T00:07:05.887Z,0.00
2022-11-05T00:08:05.868Z,0.00
2022-11-05T00:09:05.853Z,0.00
2022-11-05T00:10:05.845Z,0.00
2022-11-05T00:11:05.844Z,0.00
2022-11-05T00:12:05.838Z,0.00
2022-11-05T00:13:05.809Z,0.00
2022-11-05T00:14:05.810Z,0.00
2022-11-05T00:15:05.798Z,0.00
2022-11-05T00:16:05.785Z,0.00
2022-11-05T00:17:05.789Z,0.00
2022-11-05T00:18:05.759Z,0.00
2022-11-05T00:19:05.740Z,0.00
2022-11-05T00:20:05.739Z,0.00
2022-11-05T00:21:05.728Z,0.00
2022-11-05T00:22:05.732Z,0.00
2022-11-05T00:23:05.702Z,0.00
2022-11-05T00:24:05.704Z,0.00
2022-11-05T00:25:05.681Z,0.00
2022-11-05T00:26:05.680Z,0.00
2022-11-05T00:27:05.671Z,0.00
2022-11-05T00:28:05.651Z,0.00
2022-11-05T00:29:05.642Z,0.00
2022-11-05T00:30:05.632Z,0.00
2022-11-05T00:31:05.613Z,0.00
2022-11-05T00:32:05.632Z,0.00
2022-11-05T00:33:05.595Z,0.00
2022-11-05T00:34:05.645Z,0.00
2022-11-05T00:35:05.584Z,0.00
2022-11-05T00:36:05.572Z,0.00
2022-11-05T00:37:05.572Z,0.00
2022-11-05T00:38:05.547Z,0.00
2022-11-05T00:39:05.535Z,0.00
2022-11-05T00:40:05.534Z,0.00
2022-11-05T00:41:05.521Z,0.00
2022-11-05T00:42:05.525Z,0.00
2022-11-05T00:43:05.494Z,0.00
2022-11-05T00:44:05.485Z,0.00
2022-11-05T00:45:05.468Z,0.00
2022-11-05T00:46:05.476Z,0.00
2022-11-05T00:47:05.467Z,0.00
2022-11-05T00:48:05.448Z,0.00
2022-11-05T00:49:05.430Z,0.00
2022-11-05T00:50:05.419Z,0.00
2022-11-05T00:51:05.410Z,0.00
2022-11-05T00:52:05.418Z,0.00
2022-11-05T00:53:05.391Z,0.00
2022-11-05T00:54:05.383Z,0.00
2022-11-05T00:55:05.370Z,0.00
2022-11-05T00:56:05.362Z,0.00
2022-11-05T00:57:05.389Z,0.00
2022-11-05T00:58:05.340Z,0.00
2022-11-05T00:59:05.331Z,0.00
2022-11-05T01:00:05.321Z,0.00
2022-11-05T01:01:05.302Z,0.00
2022-11-05T01:02:05.470Z,0.00
2022-11-05T01:03:05.283Z,0.00
2022-11-05T01:04:05.264Z,0.00
2022-11-05T01:05:05.263Z,0.00
2022-11-05T01:06:05.264Z,0.00
2022-11-05T01:07:05.261Z,0.00
2022-11-05T01:08:05.231Z,0.00
2022-11-05T01:09:05.223Z,0.00
2022-11-05T01:10:05.206Z,0.00
2022-11-05T01:11:05.203Z,0.00
2022-11-05T01:12:05.203Z,0.00
2022-11-05T01:13:08.831Z,0.00
2022-11-05T01:14:06.164Z,0.00
2022-11-05T01:15:05.159Z,0.00
2022-11-05T01:16:05.148Z,0.00
2022-11-05T01:17:05.158Z,0.00
2022-11-05T01:18:05.130Z,0.00
2022-11-05T01:19:05.119Z,0.00
2022-11-05T01:20:05.139Z,0.00
2022-11-05T01:21:05.096Z,0.00
2022-11-05T01:22:05.089Z,0.00
2022-11-05T01:23:10.262Z,0.00
2022-11-05T01:24:06.080Z,0.00
2022-11-05T01:25:05.056Z,0.00
2022-11-05T01:26:05.031Z,0.00
2022-11-05T01:27:05.049Z,0.00
2022-11-05T01:28:05.021Z,0.00
2022-11-05T01:29:05.042Z,0.00
2022-11-05T01:30:05.002Z,0.00
2022-11-05T01:31:04.991Z,0.00
2022-11-05T01:32:04.993Z,0.00
2022-11-05T01:33:04.963Z,0.00
2022-11-05T01:34:04.953Z,0.00
2022-11-05T01:35:04.943Z,0.00
2022-11-05T01:36:04.933Z,0.00
2022-11-05T01:37:04.941Z,0.00
2022-11-05T01:38:04.904Z,0.00
2022-11-05T01:39:04.903Z,0.00
2022-11-05T01:40:04.892Z,0.00
2022-11-05T01:41:04.884Z,0.00
2022-11-05T01:42:04.886Z,0.00
2022-11-05T01:43:04.866Z,0.00
2022-11-05T01:44:04.845Z,0.00
2022-11-05T01:45:04.843Z,0.00
2022-11-05T01:46:04.826Z,0.00
2022-11-05T01:47:04.845Z,0.00
2022-11-05T01:48:04.804Z,0.00
2022-11-05T01:49:04.796Z,0.00
2022-11-05T01:50:04.780Z,0.00
2022-11-05T01:51:04.777Z,0.00
2022-11-05T01:52:04.796Z,0.00
2022-11-05T01:53:04.760Z,0.00
2022-11-05T01:54:04.738Z,0.00
2022-11-05T01:55:04.730Z,0.00
2022-11-05T01:56:04.734Z,0.00
2022-11-05T01:57:04.729Z,0.00
2022-11-05T01:58:04.698Z,0.00
2022-11-05T01:59:04.688Z,0.00
2022-11-05T02:00:04.678Z,0.00
2022-11-05T02:01:04.678Z,0.00
2022-11-05T02:02:04.822Z,0.00
2022-11-05T02:03:04.785Z,0.00
2022-11-05T02:04:04.632Z,0.00
2022-11-05T02:05:04.624Z,0.00
2022-11-05T02:06:04.612Z,0.00
2022-11-05T02:07:04.625Z,0.00
2022-11-05T02:08:04.595Z,0.00
2022-11-05T02:09:04.594Z,0.00
2022-11-05T02:10:04.573Z,0.00
2022-11-05T02:11:04.565Z,0.00
2022-11-05T02:12:04.565Z,0.00
2022-11-05T02:13:04.544Z,0.00
2022-11-05T02:14:04.528Z,0.00
2022-11-05T02:15:04.526Z,0.00
2022-11-05T02:16:04.506Z,0.00
2022-11-05T02:17:04.519Z,0.00
2022-11-05T02:18:04.487Z,0.00
2022-11-05T02:19:04.478Z,0.00
2022-11-05T02:20:04.459Z,0.00
2022-11-05T02:21:04.457Z,0.00
2022-11-05T02:22:04.459Z,0.00
2022-11-05T02:23:04.439Z,0.00
2022-11-05T02:24:04.418Z,0.00
2022-11-05T02:25:04.416Z,0.00
2022-11-05T02:26:04.400Z,0.00
2022-11-05T02:27:04.410Z,0.00
2022-11-05T02:28:04.380Z,0.00
2022-11-05T02:29:04.371Z,0.00
2022-11-05T02:30:04.358Z,0.00
2022-11-05T02:31:04.350Z,0.00
2022-11-05T02:32:04.360Z,0.00
2022-11-05T02:33:04.333Z,0.00
2022-11-05T02:34:04.322Z,0.00
2022-11-05T02:35:04.311Z,0.00
2022-11-05T02:36:04.294Z,0.00
2022-11-05T02:37:04.303Z,0.00
2022-11-05T02:38:04.285Z,0.00
2022-11-05T02:39:04.266Z,0.00
2022-11-05T02:40:04.254Z,0.00
2022-11-05T02:41:04.245Z,0.00
2022-11-05T02:42:05.302Z,0.00
2022-11-05T02:43:04.225Z,0.00
2022-11-05T02:44:04.207Z,0.00
2022-11-05T02:45:04.206Z,0.00
2022-11-05T02:46:04.186Z,0.00
2022-11-05T02:47:04.213Z,0.00
2022-11-05T02:48:04.167Z,0.00
2022-11-05T02:49:04.165Z,0.00
2022-11-05T02:50:04.146Z,0.00
2022-11-05T02:51:04.138Z,0.00
2022-11-05T02:52:04.137Z,0.00
2022-11-05T02:53:04.119Z,0.00
2022-11-05T02:54:04.105Z,0.00
2022-11-05T02:55:04.109Z,0.00
2022-11-05T02:56:04.088Z,0.00
2022-11-05T02:57:04.090Z,0.00
2022-11-05T02:58:04.060Z,0.00
2022-11-05T02:59:04.053Z,0.00
2022-11-05T03:00:04.048Z,0.00
2022-11-05T03:01:04.032Z,0.00
2022-11-05T03:02:04.196Z,0.00
2022-11-05T03:03:04.083Z,0.00
2022-11-05T03:04:04.002Z,0.00
2022-11-05T03:05:04.000Z,0.00
2022-11-05T03:06:03.978Z,0.00
2022-11-05T03:07:03.989Z,0.00
2022-11-05T03:08:03.960Z,0.00
2022-11-05T03:09:03.953Z,0.00
2022-11-05T03:10:03.933Z,0.00
2022-11-05T03:11:03.924Z,0.00
2022-11-05T03:12:03.932Z,0.00
2022-11-05T03:13:03.914Z,0.00
2022-11-05T03:14:03.894Z,0.00
2022-11-05T03:15:03.883Z,0.00
2022-11-05T03:16:03.873Z,0.00
2022-11-05T03:17:03.886Z,0.00
2022-11-05T03:18:03.849Z,0.00
2022-11-05T03:19:03.847Z,0.00
2022-11-05T03:20:03.828Z,0.00
2022-11-05T03:21:03.827Z,0.00
2022-11-05T03:22:03.836Z,0.00
2022-11-05T03:23:03.806Z,0.00
2022-11-05T03:24:03.787Z,0.00
2022-11-05T03:25:03.778Z,0.00
2022-11-05T03:26:03.770Z,0.00
2022-11-05T03:27:03.758Z,0.00
2022-11-05T03:28:03.760Z,0.00
2022-11-05T03:29:03.742Z,0.00
2022-11-05T03:30:03.723Z,0.00
2022-11-05T03:31:03.720Z,0.00
2022-11-05T03:32:03.700Z,0.00
2022-11-05T03:33:03.711Z,0.00
2022-11-05T03:34:03.680Z,0.00
2022-11-05T03:35:03.685Z,0.00
2022-11-05T03:36:03.660Z,0.00
2022-11-05T03:37:03.667Z,0.00
2022-11-05T03:38:03.660Z,0.00
2022-11-05T03:39:03.632Z,0.00
2022-11-05T03:40:03.614Z,0.00
2022-11-05T03:41:03.613Z,0.00
2022-11-05T03:42:03.615Z,0.00
2022-11-05T03:43:03.617Z,0.00
2022-11-05T03:44:03.574Z,0.00
2022-11-05T03:45:03.573Z,0.00
2022-11-05T03:46:03.556Z,0.00
2022-11-05T03:47:03.544Z,0.00
2022-11-05T03:48:03.545Z,0.00
2022-11-05T03:49:03.590Z,0.00
2022-11-05T03:50:03.520Z,0.00
2022-11-05T03:51:03.526Z,0.00
2022-11-05T03:52:03.495Z,0.00
2022-11-05T03:53:03.497Z,0.00
2022-11-05T03:54:03.470Z,0.00
2022-11-05T03:55:03.459Z,0.00
2022-11-05T03:56:03.467Z,0.00
2022-11-05T03:57:03.457Z,0.00
2022-11-05T03:58:03.438Z,0.00
2022-11-05T03:59:03.420Z,0.00
2022-11-05T04:00:03.429Z,0.00
2022-11-05T04:01:03.399Z,0.00
2022-11-05T04:02:03.508Z,0.00
2022-11-05T04:03:03.436Z,0.00
2022-11-05T04:04:03.371Z,0.00
2022-11-05T04:05:03.360Z,0.00
2022-11-05T04:06:03.346Z,0.00
2022-11-05T04:07:03.334Z,0.00
2022-11-05T04:08:03.341Z,0.00
2022-11-05T04:09:03.320Z,0.00
2022-11-05T04:10:03.302Z,0.00
2022-11-05T04:11:03.292Z,0.00
2022-11-05T04:12:03.273Z,0.00
2022-11-05T04:13:03.295Z,0.00
2022-11-05T04:14:03.253Z,0.00
2022-11-05T04:15:03.252Z,0.00
2022-11-05T04:16:03.234Z,0.00
2022-11-05T04:17:03.232Z,0.00
2022-11-05T04:18:03.225Z,0.00
2022-11-05T04:19:03.215Z,0.00
2022-11-05T04:20:03.198Z,0.00
2022-11-05T04:21:03.185Z,0.00
2022-11-05T04:22:03.172Z,0.00
2022-11-05T04:23:03.193Z,0.00
2022-11-05T04:24:03.156Z,0.00
2022-11-05T04:25:03.155Z,0.00
2022-11-05T04:26:03.127Z,0.00
2022-11-05T04:27:03.126Z,0.00
2022-11-05T04:28:03.132Z,0.00
2022-11-05T04:29:07.759Z,0.00
2022-11-05T04:30:04.098Z,0.00
2022-11-05T04:31:03.096Z,0.00
2022-11-05T04:32:03.077Z,0.00
2022-11-05T04:33:03.080Z,0.00
2022-11-05T04:34:03.039Z,0.00
2022-11-05T04:35:03.054Z,0.00
2022-11-05T04:36:03.029Z,0.00
2022-11-05T04:37:03.021Z,0.00
2022-11-05T04:38:03.022Z,0.00
2022-11-05T04:39:03.003Z,0.00
2022-11-05T04:40:02.992Z,0.00
2022-11-05T04:41:02.982Z,0.00
2022-11-05T04:42:02.978Z,0.00
2022-11-05T04:43:02.980Z,0.00
2022-11-05T04:44:02.941Z,0.00
2022-11-05T04:45:02.972Z,0.00
2022-11-05T04:46:02.924Z,0.00
2022-11-05T04:47:02.912Z,0.00
2022-11-05T04:48:02.922Z,0.00
2022-11-05T04:49:02.893Z,0.00
2022-11-05T04:50:02.886Z,0.00
2022-11-05T04:51:02.873Z,0.00
2022-11-05T04:52:02.855Z,0.00
2022-11-05T04:53:02.864Z,0.00
2022-11-05T04:54:02.837Z,0.00
2022-11-05T04:55:02.845Z,0.00
2022-11-05T04:56:02.817Z,0.00
2022-11-05T04:57:02.807Z,0.00
2022-11-05T04:58:02.814Z,0.00
2022-11-05T04:59:02.792Z,0.00
2022-11-05T05:00:02.786Z,0.00
2022-11-05T05:01:02.842Z,0.00
2022-11-05T05:02:02.851Z,0.00
2022-11-05T05:03:02.766Z,0.00
2022-11-05T05:04:02.729Z,0.00
2022-11-05T05:05:02.721Z,0.00
2022-11-05T05:06:04.159Z,0.00
2022-11-05T05:07:02.698Z,0.00
2022-11-05T05:08:02.710Z,0.00
2022-11-05T05:09:02.680Z,0.00
2022-11-05T05:10:02.668Z,0.00
2022-11-05T05:11:02.659Z,0.00
2022-11-05T05:12:02.650Z,0.00
2022-11-05T05:13:02.650Z,0.00
2022-11-05T05:14:02.627Z,0.00
2022-11-05T05:15:02.611Z,0.00
2022-11-05T05:16:02.613Z,0.00
2022-11-05T05:17:02.595Z,0.00
2022-11-05T05:18:02.605Z,0.00
2022-11-05T05:19:02.573Z,0.00
2022-11-05T05:20:02.575Z,0.00
2022-11-05T05:21:02.552Z,0.00
2022-11-05T05:22:02.543Z,0.00
2022-11-05T05:23:02.553Z,0.00
2022-11-05T05:24:02.526Z,0.00
2022-11-05T05:25:02.514Z,0.00
2022-11-05T05:26:02.505Z,0.00
2022-11-05T05:27:02.506Z,0.00
2022-11-05T05:28:02.487Z,0.00
2022-11-05T05:29:02.466Z,0.00
2022-11-05T05:30:02.469Z,0.00
2022-11-05T05:31:02.445Z,0.00
2022-11-05T05:32:02.465Z,0.00
2022-11-05T05:33:02.427Z,0.00
2022-11-05T05:34:02.429Z,0.00
2022-11-05T05:35:02.398Z,0.00
2022-11-05T05:36:07.016Z,0.00
2022-11-05T05:37:03.398Z,0.00
2022-11-05T05:38:02.376Z,0.00
2022-11-05T05:39:02.360Z,0.00
2022-11-05T05:40:02.357Z,0.00
2022-11-05T05:41:02.348Z,0.00
2022-11-05T05:42:02.448Z,0.00
2022-11-05T05:43:02.310Z,0.00
2022-11-05T05:44:02.312Z,0.00
2022-11-05T05:45:02.299Z,0.00
2022-11-05T05:46:02.293Z,0.00
2022-11-05T05:47:02.292Z,0.00
2022-11-05T05:48:02.274Z,0.00
2022-11-05T05:49:03.043Z,0.00
2022-11-05T05:50:02.273Z,0.00
2022-11-05T05:51:02.234Z,0.00
2022-11-05T05:52:02.246Z,0.00
2022-11-05T05:53:02.213Z,0.00
2022-11-05T05:54:02.212Z,0.00
2022-11-05T05:55:02.207Z,0.00
2022-11-05T05:56:02.185Z,0.00
2022-11-05T05:57:02.196Z,0.00
2022-11-05T05:58:02.165Z,0.00
2022-11-05T05:59:02.108Z,1.00
2022-11-05T06:00:02.095Z,1.00
2022-11-05T06:01:02.135Z,0.00
2022-11-05T06:02:02.275Z,0.00
2022-11-05T06:03:02.133Z,2.00
2022-11-05T06:04:02.045Z,1.00
2022-11-05T06:05:02.056Z,1.00
2022-11-05T06:06:02.086Z,0.00
2022-11-05T06:07:02.042Z,2.00
2022-11-05T06:08:02.017Z,1.00
2022-11-05T06:09:01.995Z,1.00
2022-11-05T06:10:01.987Z,2.00
2022-11-05T06:11:02.041Z,2.00
2022-11-05T06:12:01.980Z,8.00
2022-11-05T06:13:01.949Z,5.00
2022-11-05T06:14:01.946Z,6.00
2022-11-05T06:15:01.927Z,5.00
2022-11-05T06:16:01.919Z,3.00
2022-11-05T06:17:01.923Z,6.00
2022-11-05T06:18:01.908Z,7.00
2022-11-05T06:19:01.892Z,8.00
2022-11-05T06:20:01.900Z,9.00
2022-11-05T06:21:01.866Z,9.00
2022-11-05T06:22:01.879Z,10.00
2022-11-05T06:23:01.842Z,17.00
2022-11-05T06:24:01.847Z,13.00
2022-11-05T06:25:01.833Z,16.00
2022-11-05T06:26:01.815Z,19.00
2022-11-05T06:27:01.827Z,22.00
2022-11-05T06:28:01.814Z,21.00
2022-11-05T06:29:01.789Z,21.00
2022-11-05T06:30:01.772Z,23.00
2022-11-05T06:31:01.754Z,25.00
2022-11-05T06:32:01.772Z,26.00
2022-11-05T06:33:01.734Z,26.00
2022-11-05T06:34:01.735Z,29.00
2022-11-05T06:35:01.729Z,34.00
2022-11-05T06:36:01.725Z,36.00
2022-11-05T06:37:01.744Z,38.00
2022-11-05T06:38:01.692Z,30.00
2022-11-05T06:39:01.679Z,34.00
2022-11-05T06:40:01.717Z,46.00
2022-11-05T06:41:05.737Z,51.00
2022-11-05T06:42:19.350Z,52.00
2022-11-05T06:43:02.635Z,52.00
2022-11-05T06:44:01.626Z,50.00
2022-11-05T06:45:01.616Z,52.00
2022-11-05T06:46:01.607Z,60.00
2022-11-05T06:47:01.605Z,66.00
2022-11-05T06:48:01.668Z,62.00
2022-11-05T06:49:01.567Z,56.00
2022-11-05T06:50:01.572Z,51.00
2022-11-05T06:51:01.562Z,56.00
2022-11-05T06:52:01.557Z,66.00
2022-11-05T06:53:01.529Z,86.00
2022-11-05T06:54:01.520Z,87.00
2022-11-05T06:55:01.506Z,93.00
2022-11-05T06:56:01.509Z,106.00
2022-11-05T06:57:01.500Z,106.00
2022-11-05T06:58:01.479Z,109.00
2022-11-05T06:59:01.461Z,98.00
2022-11-05T07:00:05.756Z,41.00
2022-11-05T07:01:02.479Z,58.00
2022-11-05T07:02:01.515Z,175.00
2022-11-05T07:03:01.461Z,126.00
2022-11-05T07:04:01.413Z,157.00
2022-11-05T07:05:01.408Z,105.00
2022-11-05T07:06:01.394Z,75.00
2022-11-05T07:07:01.384Z,113.00
2022-11-05T07:08:01.394Z,168.00
2022-11-05T07:09:01.364Z,178.00
2022-11-05T07:10:01.353Z,137.00
2022-11-05T07:11:01.374Z,146.00
2022-11-05T07:12:01.334Z,123.00
2022-11-05T07:13:05.174Z,66.00
2022-11-05T07:14:02.317Z,134.00
2022-11-05T07:15:01.296Z,169.00
2022-11-05T07:16:01.293Z,158.00
2022-11-05T07:17:01.272Z,173.00
2022-11-05T07:18:01.286Z,148.00
2022-11-05T07:19:01.251Z,140.00
2022-11-05T07:20:01.271Z,134.00
2022-11-05T07:21:01.245Z,144.00
2022-11-05T07:22:01.236Z,163.00
2022-11-05T07:23:01.230Z,164.00
2022-11-05T07:24:01.212Z,156.00
2022-11-05T07:25:01.201Z,164.00
2022-11-05T07:26:01.190Z,196.00
2022-11-05T07:27:01.168Z,181.00
2022-11-05T07:28:01.180Z,163.00
2022-11-05T07:29:01.160Z,160.00
2022-11-05T07:30:01.140Z,157.00
2022-11-05T07:31:01.238Z,154.00
2022-11-05T07:32:01.121Z,228.00
2022-11-05T07:33:01.168Z,207.00
2022-11-05T07:34:01.105Z,162.00
2022-11-05T07:35:01.089Z,120.00
2022-11-05T07:36:01.082Z,147.00
2022-11-05T07:37:01.093Z,256.00
2022-11-05T07:38:01.064Z,255.00
2022-11-05T07:39:01.043Z,212.00
2022-11-05T07:40:01.047Z,180.00
2022-11-05T07:41:01.023Z,168.00
2022-11-05T07:42:01.032Z,304.00
2022-11-05T07:43:01.003Z,261.00
2022-11-05T07:44:00.994Z,257.00
2022-11-05T07:45:00.989Z,239.00
2022-11-05T07:46:00.980Z,236.00
2022-11-05T07:47:00.955Z,221.00
2022-11-05T07:48:00.968Z,212.00
2022-11-05T07:49:00.958Z,211.00
2022-11-05T07:50:00.938Z,246.00
2022-11-05T07:51:00.921Z,252.00
2022-11-05T07:52:00.921Z,201.00
2022-11-05T07:53:00.914Z,220.00
2022-11-05T07:54:00.889Z,260.00
2022-11-05T07:55:00.880Z,333.00
2022-11-05T07:56:00.876Z,404.00
2022-11-05T07:57:00.849Z,410.00
2022-11-05T07:58:00.867Z,460.00
2022-11-05T07:59:00.838Z,247.00
2022-11-05T08:00:00.829Z,210.00
2022-11-05T08:01:00.940Z,340.00
2022-11-05T08:02:00.964Z,235.00
2022-11-05T08:03:06.803Z,197.00
2022-11-05T08:04:01.798Z,228.00
2022-11-05T08:05:00.770Z,214.00
2022-11-05T08:06:00.761Z,271.00
2022-11-05T08:07:00.749Z,254.00
2022-11-05T08:08:00.764Z,345.00
2022-11-05T08:09:00.731Z,401.00
2022-11-05T08:10:00.720Z,338.00
2022-11-05T08:11:00.712Z,243.00
2022-11-05T08:12:03.139Z,180.00
2022-11-05T08:13:00.711Z,145.00
2022-11-05T08:14:00.680Z,128.00
2022-11-05T08:15:00.664Z,131.00
2022-11-05T08:16:00.654Z,144.00
2022-11-05T08:17:00.643Z,256.00
2022-11-05T08:18:00.654Z,255.00
2022-11-05T08:19:00.625Z,229.00
2022-11-05T08:20:00.615Z,271.00
2022-11-05T08:21:00.597Z,365.00
2022-11-05T08:22:00.600Z,473.00
2022-11-05T08:23:00.595Z,374.00
2022-11-05T08:24:00.575Z,321.00
2022-11-05T08:25:06.452Z,521.00
2022-11-05T08:26:01.555Z,489.00
2022-11-05T08:27:00.556Z,366.00
2022-11-05T08:28:00.546Z,388.00
2022-11-05T08:29:00.517Z,353.00
2022-11-05T08:30:00.509Z,309.00
2022-11-05T08:31:00.488Z,328.00
2022-11-05T08:32:00.489Z,378.00
2022-11-05T08:33:00.489Z,347.00
2022-11-05T08:34:02.576Z,377.00
2022-11-05T08:35:00.489Z,362.00
2022-11-05T08:36:00.448Z,360.00
2022-11-05T08:37:00.431Z,347.00
2022-11-05T08:38:00.441Z,338.00
2022-11-05T08:39:00.407Z,346.00
2022-11-05T08:40:00.400Z,350.00
2022-11-05T08:41:00.396Z,351.00
2022-11-05T08:42:00.385Z,372.00
2022-11-05T08:43:00.386Z,365.00
2022-11-05T08:44:00.372Z,351.00
2022-11-05T08:45:00.341Z,350.00
2022-11-05T08:46:00.334Z,341.00
2022-11-05T08:47:00.324Z,349.00
2022-11-05T08:48:00.333Z,349.00
2022-11-05T08:49:00.312Z,352.00
2022-11-05T08:50:00.296Z,346.00
2022-11-05T08:51:00.283Z,363.00
2022-11-05T08:52:00.283Z,372.00
2022-11-05T08:53:00.284Z,377.00
2022-11-05T08:54:00.256Z,379.00
2022-11-05T08:55:00.238Z,369.00
2022-11-05T08:56:00.234Z,364.00
2022-11-05T08:57:00.215Z,359.00
2022-11-05T08:58:00.233Z,378.00
2022-11-05T08:59:00.196Z,377.00
2022-11-05T09:00:00.211Z,378.00
2022-11-05T09:01:04.780Z,380.00
2022-11-05T09:02:01.290Z,392.00
2022-11-05T09:03:00.171Z,385.00
2022-11-05T09:04:00.147Z,390.00
2022-11-05T09:05:00.138Z,404.00
2022-11-05T09:06:00.149Z,402.00
2022-11-05T09:07:00.108Z,408.00
2022-11-05T09:08:01.568Z,419.00
2022-11-05T09:09:00.095Z,419.00
2022-11-05T09:10:00.103Z,423.00
2022-11-05T09:11:00.100Z,428.00
2022-11-05T09:12:12.123Z,413.00
2022-11-05T09:13:01.070Z,413.00
2022-11-05T09:14:00.049Z,417.00
2022-11-05T09:15:00.043Z,409.00
2022-11-05T09:16:00.011Z,425.00
2022-11-05T09:17:00.010Z,435.00
2022-11-05T09:18:00.039Z,437.00
2022-11-05T09:19:00.001Z,424.00
2022-11-05T09:19:59.984Z,422.00
2022-11-05T09:20:59.983Z,434.00
2022-11-05T09:22:00.006Z,438.00
2022-11-05T09:22:59.962Z,435.00
2022-11-05T09:23:59.934Z,463.00
2022-11-05T09:24:59.934Z,430.00
2022-11-05T09:25:59.915Z,543.00
2022-11-05T09:26:59.914Z,644.00
2022-11-05T09:27:59.905Z,571.00
2022-11-05T09:28:59.892Z,686.00
2022-11-05T09:29:59.885Z,851.00
2022-11-05T09:30:59.862Z,776.00
2022-11-05T09:31:59.854Z,917.00
2022-11-05T09:32:59.856Z,811.00
2022-11-05T09:33:59.827Z,693.00
2022-11-05T09:34:59.818Z,500.00
2022-11-05T09:35:59.809Z,509.00
2022-11-05T09:36:59.797Z,622.00
2022-11-05T09:38:01.089Z,977.00
2022-11-05T09:38:59.789Z,1006.00
2022-11-05T09:39:59.767Z,762.00
2022-11-05T09:40:59.767Z,763.00
2022-11-05T09:41:59.745Z,1036.00
2022-11-05T09:42:59.749Z,956.00
2022-11-05T09:43:59.729Z,905.00
2022-11-05T09:44:59.709Z,710.00
2022-11-05T09:45:59.699Z,552.00
2022-11-05T09:46:59.699Z,396.00
2022-11-05T09:47:59.697Z,700.00
2022-11-05T09:48:59.670Z,680.00
2022-11-05T09:49:59.653Z,604.00
2022-11-05T09:50:59.652Z,715.00
2022-11-05T09:51:59.639Z,932.00
2022-11-05T09:52:59.652Z,1014.00
2022-11-05T09:53:59.623Z,996.00
2022-11-05T09:54:59.618Z,972.00
2022-11-05T09:55:59.602Z,793.00
2022-11-05T09:56:59.591Z,794.00
2022-11-05T09:57:59.591Z,967.00
2022-11-05T09:58:59.567Z,1078.00
2022-11-05T09:59:59.553Z,525.00
2022-11-05T10:00:59.595Z,484.00
2022-11-05T10:01:59.598Z,698.00
2022-11-05T10:02:59.543Z,572.00
2022-11-05T10:03:59.515Z,719.00
2022-11-05T10:05:02.433Z,541.00
2022-11-05T10:06:00.485Z,638.00
2022-11-05T10:06:59.484Z,697.00
2022-11-05T10:07:59.484Z,608.00
2022-11-05T10:08:59.470Z,570.00
2022-11-05T10:09:59.448Z,783.00
2022-11-05T10:10:59.438Z,717.00
2022-11-05T10:11:59.430Z,498.00
2022-11-05T10:12:59.448Z,472.00
2022-11-05T10:13:59.405Z,651.00
2022-11-05T10:14:59.399Z,628.00
2022-11-05T10:15:59.402Z,592.00
2022-11-05T10:16:59.379Z,648.00
2022-11-05T10:17:59.381Z,621.00
2022-11-05T10:18:59.366Z,819.00
2022-11-05T10:19:59.346Z,882.00
2022-11-05T10:20:59.341Z,889.00
2022-11-05T10:22:06.489Z,1059.00
2022-11-05T10:23:00.336Z,1097.00
2022-11-05T10:23:59.301Z,572.00
2022-11-05T10:24:59.312Z,380.00
2022-11-05T10:25:59.281Z,618.00
2022-11-05T10:26:59.274Z,175.00
2022-11-05T10:27:59.282Z,433.00
2022-11-05T10:28:59.252Z,402.00
2022-11-05T10:29:59.245Z,352.00
2022-11-05T10:30:59.233Z,332.00
2022-11-05T10:31:59.215Z,384.00
2022-11-05T10:32:59.226Z,735.00
2022-11-05T10:33:59.206Z,262.00
2022-11-05T10:34:59.187Z,446.00
2022-11-05T10:35:59.185Z,451.00
2022-11-05T10:36:59.178Z,550.00
2022-11-05T10:37:59.185Z,833.00
2022-11-05T10:38:59.147Z,358.00
2022-11-05T10:39:59.136Z,228.00
2022-11-05T10:40:59.127Z,218.00
2022-11-05T10:41:59.125Z,186.00
2022-11-05T10:42:59.148Z,222.00
2022-11-05T10:43:59.090Z,242.00
2022-11-05T10:44:59.099Z,220.00
2022-11-05T10:45:59.060Z,215.00
2022-11-05T10:46:59.059Z,209.00
2022-11-05T10:47:59.068Z,195.00
2022-11-05T10:48:59.050Z,236.00
2022-11-05T10:49:59.040Z,236.00
2022-11-05T10:50:59.023Z,224.00
2022-11-05T10:51:59.003Z,106.00
2022-11-05T10:52:59.015Z,213.00
2022-11-05T10:54:02.112Z,604.00
2022-11-05T10:54:58.983Z,212.00
2022-11-05T10:55:58.963Z,195.00
2022-11-05T10:56:58.954Z,182.00
2022-11-05T10:57:58.963Z,95.00
2022-11-05T10:58:58.933Z,293.00
2022-11-05T10:59:58.923Z,190.00
2022-11-05T11:00:58.949Z,317.00
2022-11-05T11:01:59.032Z,309.00
2022-11-05T11:02:58.913Z,302.00
2022-11-05T11:03:58.877Z,311.00
2022-11-05T11:04:58.873Z,315.00
2022-11-05T11:05:58.857Z,308.00
2022-11-05T11:06:58.859Z,319.00
2022-11-05T11:07:58.855Z,362.00
2022-11-05T11:08:58.827Z,343.00
2022-11-05T11:09:58.817Z,314.00
2022-11-05T11:10:58.821Z,316.00
2022-11-05T11:11:58.797Z,285.00
2022-11-05T11:12:58.812Z,306.00
2022-11-05T11:13:58.770Z,302.00
2022-11-05T11:14:58.772Z,310.00
2022-11-05T11:15:58.750Z,310.00
2022-11-05T11:16:58.751Z,322.00
2022-11-05T11:17:58.750Z,324.00
2022-11-05T11:18:58.731Z,304.00
2022-11-05T11:19:58.728Z,314.00
2022-11-05T11:20:58.702Z,346.00
2022-11-05T11:21:58.693Z,295.00
2022-11-05T11:22:58.701Z,316.00
2022-11-05T11:23:58.735Z,308.00
2022-11-05T11:24:58.665Z,314.00
2022-11-05T11:25:58.644Z,326.00
2022-11-05T11:26:58.657Z,316.00
2022-11-05T11:27:58.665Z,319.00
2022-11-05T11:28:58.636Z,700.00
2022-11-05T11:29:58.603Z,116.00
2022-11-05T11:30:58.598Z,221.00
2022-11-05T11:31:58.587Z,315.00
2022-11-05T11:32:58.616Z,321.00
2022-11-05T11:33:58.566Z,323.00
2022-11-05T11:34:58.562Z,330.00
2022-11-05T11:35:58.552Z,348.00
2022-11-05T11:36:58.537Z,321.00
2022-11-05T11:37:58.556Z,336.00
2022-11-05T11:38:58.515Z,360.00
2022-11-05T11:39:58.499Z,347.00
2022-11-05T11:40:58.488Z,368.00
2022-11-05T11:41:58.470Z,378.00
2022-11-05T11:42:58.521Z,367.00
2022-11-05T11:43:58.466Z,374.00
2022-11-05T11:44:58.445Z,343.00
2022-11-05T11:46:04.876Z,322.00
2022-11-05T11:46:59.423Z,340.00
2022-11-05T11:47:58.434Z,356.00
2022-11-05T11:48:58.410Z,349.00
2022-11-05T11:49:58.391Z,353.00
2022-11-05T11:50:58.382Z,373.00
2022-11-05T11:51:58.394Z,362.00
2022-11-05T11:52:58.392Z,368.00
2022-11-05T11:53:58.348Z,464.00
2022-11-05T11:54:58.345Z,792.00
2022-11-05T11:55:58.324Z,307.00
2022-11-05T11:56:58.320Z,283.00
2022-11-05T11:57:58.325Z,287.00
2022-11-05T11:58:58.295Z,119.00
2022-11-05T12:00:13.676Z,229.00
2022-11-05T12:00:59.285Z,384.00
2022-11-05T12:01:58.371Z,371.00
2022-11-05T12:03:01.866Z,373.00
2022-11-05T12:03:58.274Z,765.00
2022-11-05T12:04:58.236Z,131.00
2022-11-05T12:05:58.218Z,627.00
2022-11-05T12:06:58.219Z,217.00
2022-11-05T12:07:58.248Z,201.00
2022-11-05T12:09:03.566Z,200.00
2022-11-05T12:09:59.169Z,193.00
2022-11-05T12:10:58.182Z,191.00
2022-11-05T12:11:58.160Z,174.00
2022-11-05T12:12:58.181Z,364.00
2022-11-05T12:13:58.135Z,269.00
2022-11-05T12:14:58.142Z,792.00
2022-11-05T12:15:58.120Z,276.00
2022-11-05T12:16:58.103Z,98.00
2022-11-05T12:17:58.112Z,142.00
2022-11-05T12:18:58.091Z,627.00
2022-11-05T12:19:58.074Z,291.00
2022-11-05T12:20:58.589Z,258.00
2022-11-05T12:21:58.042Z,315.00
2022-11-05T12:22:58.073Z,339.00
2022-11-05T12:23:58.037Z,343.00
2022-11-05T12:24:58.025Z,252.00
2022-11-05T12:25:58.004Z,359.00
2022-11-05T12:26:58.007Z,392.00
2022-11-05T12:27:57.998Z,272.00
2022-11-05T12:29:17.859Z,292.00
2022-11-05T12:29:58.964Z,444.00
2022-11-05T12:30:57.963Z,535.00
2022-11-05T12:31:57.937Z,278.00
2022-11-05T12:32:58.052Z,219.00
2022-11-05T12:33:57.927Z,372.00
2022-11-05T12:34:57.917Z,443.00
2022-11-05T12:35:58.216Z,499.00
2022-11-05T12:36:57.896Z,372.00
2022-11-05T12:37:57.891Z,288.00
2022-11-05T12:38:57.869Z,224.00
2022-11-05T12:39:57.850Z,216.00
2022-11-05T12:40:57.849Z,207.00
2022-11-05T12:41:57.841Z,180.00
2022-11-05T12:42:57.850Z,213.00
2022-11-05T12:43:57.814Z,257.00
2022-11-05T12:44:57.811Z,250.00
2022-11-05T12:45:57.792Z,265.00
2022-11-05T12:46:57.790Z,260.00
2022-11-05T12:47:57.792Z,213.00
2022-11-05T12:48:57.770Z,200.00
2022-11-05T12:49:57.753Z,176.00
2022-11-05T12:50:57.743Z,169.00
2022-11-05T12:51:57.724Z,157.00
2022-11-05T12:52:57.742Z,116.00